Time;durP1;ratioP1;P1;durP2;ratioP2;P2;SDS_P1;SDS_P2;PMS_P1;PMS_P2;Temp;Humidity;BMP_temperature;BMP_pressure;BME280_temperature;BME280_humidity;BME280_pressure;Samples;Min_cycle;Max_cycle;Signal;HPM_P1;HPM_P2
2022/10/27 00:00:07;;;;;;;2.75;1.90;;;;;;;;;;5038417;28;93066;-76
2022/10/27 00:02:34;;;;;;;1.85;1.50;;;;;;;;;;5035438;28;92414;-76
2022/10/27 00:05:00;;;;;;;3.88;1.70;;;;;;;;;;5035257;28;93162;-76
2022/10/27 00:07:26;;;;;;;1.60;1.45;;;;;;;;;;5017567;28;93797;-76
2022/10/27 00:09:53;;;;;;;1.58;1.45;;;;;;;;;;5035078;28;92464;-77
2022/10/27 00:12:19;;;;;;;2.97;1.80;;;;;;;;;;5035389;28;94164;-76
2022/10/27 00:14:45;;;;;;;1.75;1.52;;;;;;;;;;5032699;27;95928;-76
2022/10/27 00:17:11;;;;;;;2.45;1.77;;;;;;;;;;5034893;28;92445;-76
2022/10/27 00:19:38;;;;;;;2.47;1.52;;;;;;;;;;5035315;28;94594;-76
2022/10/27 00:22:04;;;;;;;1.73;1.50;;;;;;;;;;5037653;28;93395;-77
2022/10/27 00:24:30;;;;;;;2.35;1.50;;;;;;;;;;5035124;28;93238;-77
2022/10/27 00:26:56;;;;;;;3.42;1.77;;;;;;;;;;5034894;28;93467;-76
2022/10/27 00:29:23;;;;;;;3.15;1.48;;;;;;;;;;5034800;28;92419;-76
2022/10/27 00:31:49;;;;;;;2.78;1.77;;;;;;;;;;5035323;28;91817;-76
2022/10/27 00:34:15;;;;;;;3.70;1.60;;;;;;;;;;5035015;28;94426;-76
2022/10/27 00:36:41;;;;;;;2.17;1.52;;;;;;;;;;5034163;28;92534;-76
2022/10/27 00:39:09;;;;;;;2.70;1.40;;;;;;;;;;5033668;28;94783;-76
2022/10/27 00:41:37;;;;;;;2.42;1.67;;;;;;;;;;5034884;28;93475;-76
2022/10/27 00:44:21;;;;;;;1.77;1.30;;;;;;;;;;5037708;28;92427;-76
2022/10/27 00:46:48;;;;;;;2.10;1.63;;;;;;;;;;5034100;28;93431;-76
2022/10/27 00:49:17;;;;;;;3.80;1.58;;;;;;;;;;5016428;28;92784;-76
2022/10/27 00:51:51;;;;;;;1.85;1.50;;;;;;;;;;5034440;28;93086;-76
2022/10/27 00:54:18;;;;;;;2.03;1.67;;;;;;;;;;5034362;28;93436;-76
2022/10/27 00:56:46;;;;;;;2.05;1.27;;;;;;;;;;5034875;28;91704;-76
2022/10/27 00:59:13;;;;;;;1.65;1.35;;;;;;;;;;5034457;28;92824;-76
2022/10/27 01:01:39;;;;;;;1.95;1.65;;;;;;;;;;5033809;28;93759;-76
2022/10/27 01:04:07;;;;;;;2.45;1.55;;;;;;;;;;5035767;28;94856;-76
2022/10/27 01:06:34;;;;;;;2.92;1.50;;;;;;;;;;5033132;28;93652;-76
2022/10/27 01:09:01;;;;;;;2.38;1.70;;;;;;;;;;5034241;28;92427;-76
2022/10/27 01:11:27;;;;;;;1.88;1.50;;;;;;;;;;5034300;28;93482;-76
2022/10/27 01:13:53;;;;;;;1.58;1.48;;;;;;;;;;5033823;28;93796;-76
2022/10/27 01:16:25;;;;;;;1.48;1.30;;;;;;;;;;5016262;28;92482;-76
2022/10/27 01:19:10;;;;;;;3.90;1.70;;;;;;;;;;5034214;28;92892;-76
2022/10/27 01:21:55;;;;;;;1.98;1.30;;;;;;;;;;5034539;28;91715;-76
2022/10/27 01:24:21;;;;;;;1.40;1.30;;;;;;;;;;5034241;27;92511;-76
2022/10/27 01:26:57;;;;;;;2.25;1.50;;;;;;;;;;5039734;28;93458;-77
2022/10/27 01:29:23;;;;;;;4.75;1.67;;;;;;;;;;5035564;28;94863;-77
2022/10/27 01:32:10;;;;;;;1.98;1.40;;;;;;;;;;5037506;28;95160;-76
2022/10/27 01:35:00;;;;;;;1.83;1.35;;;;;;;;;;5037375;28;93448;-76
2022/10/27 01:37:28;;;;;;;2.70;1.65;;;;;;;;;;5024748;28;93783;-76
2022/10/27 01:40:03;;;;;;;3.08;1.88;;;;;;;;;;5037553;28;93253;-76
2022/10/27 01:42:41;;;;;;;1.60;1.45;;;;;;;;;;5037077;28;92396;-76
2022/10/27 01:45:09;;;;;;;2.10;1.42;;;;;;;;;;5037216;28;92426;-76
2022/10/27 01:47:36;;;;;;;4.03;1.90;;;;;;;;;;5038005;28;94931;-76
2022/10/27 01:50:02;;;;;;;3.17;1.52;;;;;;;;;;5040413;28;93522;-77
2022/10/27 01:52:41;;;;;;;2.85;1.35;;;;;;;;;;5037214;28;93134;-76
2022/10/27 01:55:13;;;;;;;1.60;1.50;;;;;;;;;;5035522;28;95834;-76
2022/10/27 01:57:52;;;;;;;1.98;1.30;;;;;;;;;;5037109;28;92542;-77
2022/10/27 02:00:18;;;;;;;2.42;1.48;;;;;;;;;;5019562;28;93130;-76
2022/10/27 02:03:00;;;;;;;2.03;1.40;;;;;;;;;;5036820;28;93422;-77
2022/10/27 02:05:34;;;;;;;1.88;1.60;;;;;;;;;;5037345;28;92494;-76
2022/10/27 02:08:03;;;;;;;2.60;1.48;;;;;;;;;;5036894;28;93112;-76
2022/10/27 02:10:40;;;;;;;4.15;1.70;;;;;;;;;;5036744;28;94389;-76
2022/10/27 02:13:07;;;;;;;2.35;1.48;;;;;;;;;;5022781;28;91859;-76
2022/10/27 02:15:36;;;;;;;2.60;1.50;;;;;;;;;;5036251;28;93523;-76
2022/10/27 02:18:05;;;;;;;1.35;1.25;;;;;;;;;;5036545;28;92522;-76
2022/10/27 02:20:34;;;;;;;2.28;1.67;;;;;;;;;;5035818;28;94802;-76
2022/10/27 02:23:06;;;;;;;1.52;1.10;;;;;;;;;;5036271;28;93778;-76
2022/10/27 02:25:35;;;;;;;2.00;1.30;;;;;;;;;;5036956;28;92387;-76
2022/10/27 02:28:04;;;;;;;1.73;1.50;;;;;;;;;;5036791;28;93075;-76
2022/10/27 02:30:31;;;;;;;1.52;1.30;;;;;;;;;;5018850;28;93531;-76
2022/10/27 02:32:57;;;;;;;2.72;1.67;;;;;;;;;;5036902;28;92423;-77
2022/10/27 02:35:24;;;;;;;2.33;1.50;;;;;;;;;;5039868;28;96129;-77
2022/10/27 02:37:50;;;;;;;1.20;1.05;;;;;;;;;;5036451;27;91663;-77
2022/10/27 02:40:17;;;;;;;1.85;1.50;;;;;;;;;;5036651;28;92433;-77
2022/10/27 02:42:43;;;;;;;2.75;1.60;;;;;;;;;;5036514;28;93703;-77
2022/10/27 02:45:09;;;;;;;2.63;1.70;;;;;;;;;;5034976;28;94825;-76
2022/10/27 02:47:36;;;;;;;1.77;1.40;;;;;;;;;;5036321;28;95850;-76
2022/10/27 02:50:02;;;;;;;1.33;1.23;;;;;;;;;;5018117;28;93759;-76
2022/10/27 02:52:28;;;;;;;2.25;1.40;;;;;;;;;;5036180;28;92457;-76
2022/10/27 02:54:54;;;;;;;1.75;1.20;;;;;;;;;;5036122;28;93550;-76
2022/10/27 02:57:21;;;;;;;1.33;1.17;;;;;;;;;;5039343;28;92389;-77
2022/10/27 02:59:47;;;;;;;2.35;1.30;;;;;;;;;;5018190;28;93087;-77
2022/10/27 03:02:19;;;;;;;2.60;1.60;;;;;;;;;;5036067;28;92746;-77
2022/10/27 03:04:45;;;;;;;2.40;1.60;;;;;;;;;;5036204;28;92392;-77
2022/10/27 03:07:11;;;;;;;3.28;1.50;;;;;;;;;;5018017;28;93046;-76
2022/10/27 03:09:38;;;;;;;4.90;1.58;;;;;;;;;;5034421;28;95828;-76
2022/10/27 03:12:04;;;;;;;1.92;1.30;;;;;;;;;;5036006;28;92439;-76
2022/10/27 03:14:30;;;;;;;1.98;1.23;;;;;;;;;;5036211;28;93088;-76
2022/10/27 03:16:57;;;;;;;1.48;1.38;;;;;;;;;;5021095;28;93446;-76
2022/10/27 03:19:23;;;;;;;1.75;1.20;;;;;;;;;;5036260;28;96593;-76
2022/10/27 03:21:49;;;;;;;1.20;1.10;;;;;;;;;;5035511;28;93237;-76
2022/10/27 03:24:16;;;;;;;1.67;1.42;;;;;;;;;;5018193;28;92500;-76
2022/10/27 03:26:42;;;;;;;1.98;1.30;;;;;;;;;;5036855;28;92305;-76
2022/10/27 03:29:08;;;;;;;2.45;1.35;;;;;;;;;;5035594;28;93383;-76
2022/10/27 03:31:34;;;;;;;3.38;1.42;;;;;;;;;;5036044;28;92392;-76
2022/10/27 03:34:01;;;;;;;1.85;1.27;;;;;;;;;;5016743;28;94795;-76
2022/10/27 03:36:27;;;;;;;1.52;1.20;;;;;;;;;;5036054;28;96434;-76
2022/10/27 03:38:53;;;;;;;2.25;1.40;;;;;;;;;;5038890;28;92566;-77
2022/10/27 03:41:20;;;;;;;1.27;1.17;;;;;;;;;;5035362;28;94519;-77
2022/10/27 03:43:46;;;;;;;2.30;1.35;;;;;;;;;;5035581;28;92477;-77
2022/10/27 03:46:13;;;;;;;1.60;1.40;;;;;;;;;;5034812;28;93489;-77
2022/10/27 03:48:39;;;;;;;1.98;1.50;;;;;;;;;;5034270;28;93875;-76
2022/10/27 03:51:05;;;;;;;2.25;1.50;;;;;;;;;;5036346;28;91711;-76
2022/10/27 03:53:31;;;;;;;1.65;1.48;;;;;;;;;;5035943;28;93428;-76
2022/10/27 03:55:57;;;;;;;1.50;1.40;;;;;;;;;;5035782;28;93207;-77
2022/10/27 03:58:24;;;;;;;1.83;1.60;;;;;;;;;;5034077;28;94758;-77
2022/10/27 04:00:50;;;;;;;1.50;1.20;;;;;;;;;;5037483;28;95553;-76
2022/10/27 04:03:16;;;;;;;3.45;1.27;;;;;;;;;;5017000;28;92609;-76
2022/10/27 04:05:43;;;;;;;1.95;1.30;;;;;;;;;;5017341;28;93031;-76
2022/10/27 04:08:09;;;;;;;1.30;1.20;;;;;;;;;;5034964;28;93311;-76
2022/10/27 04:10:36;;;;;;;1.55;1.35;;;;;;;;;;5017248;28;92524;-76
2022/10/27 04:13:02;;;;;;;1.27;1.17;;;;;;;;;;5017348;28;93415;-76
2022/10/27 04:15:28;;;;;;;2.33;1.27;;;;;;;;;;5034985;28;92734;-76
2022/10/27 04:17:55;;;;;;;1.40;1.30;;;;;;;;;;5035041;28;92434;-77
2022/10/27 04:20:22;;;;;;;2.05;1.40;;;;;;;;;;5010174;28;94532;-76
2022/10/27 04:22:48;;;;;;;1.63;1.10;;;;;;;;;;5016231;28;95821;-76
2022/10/27 04:25:15;;;;;;;1.58;1.20;;;;;;;;;;5014793;28;95693;-76
2022/10/27 04:27:41;;;;;;;5.63;1.40;;;;;;;;;;5014771;28;93395;-76
2022/10/27 04:30:08;;;;;;;1.55;1.20;;;;;;;;;;5014240;28;92455;-76
2022/10/27 04:32:34;;;;;;;3.15;1.50;;;;;;;;;;5014719;28;93499;-76
2022/10/27 04:35:00;;;;;;;1.58;1.38;;;;;;;;;;5014397;28;93488;-76
2022/10/27 04:37:27;;;;;;;1.63;1.40;;;;;;;;;;5014767;28;92440;-76
2022/10/27 04:39:53;;;;;;;1.50;1.20;;;;;;;;;;5015108;28;93117;-76
2022/10/27 04:42:20;;;;;;;1.52;1.20;;;;;;;;;;5014376;28;93469;-76
2022/10/27 04:44:46;;;;;;;1.30;1.20;;;;;;;;;;5017452;28;92439;-76
2022/10/27 04:47:12;;;;;;;1.55;1.15;;;;;;;;;;5031499;28;95783;-76
2022/10/27 04:49:38;;;;;;;1.55;1.23;;;;;;;;;;5034398;28;92454;-76
2022/10/27 04:52:05;;;;;;;1.50;1.40;;;;;;;;;;5034275;28;93087;-76
2022/10/27 04:54:31;;;;;;;2.25;1.40;;;;;;;;;;5034420;28;93855;-76
2022/10/27 04:56:57;;;;;;;2.42;1.25;;;;;;;;;;5034290;28;92522;-76
2022/10/27 04:59:24;;;;;;;1.30;1.20;;;;;;;;;;5017032;28;93147;-77
2022/10/27 05:01:50;;;;;;;1.30;1.13;;;;;;;;;;5038237;28;94325;-77
2022/10/27 05:04:17;;;;;;;1.35;1.25;;;;;;;;;;5038232;28;91762;-77
2022/10/27 05:06:43;;;;;;;1.23;1.05;;;;;;;;;;5022529;28;92749;-77
2022/10/27 05:09:09;;;;;;;1.15;1.05;;;;;;;;;;5038057;28;92395;-76
2022/10/27 05:11:36;;;;;;;1.55;1.23;;;;;;;;;;5036325;28;94722;-76
2022/10/27 05:14:02;;;;;;;1.40;1.15;;;;;;;;;;5037853;28;93403;-76
2022/10/27 05:16:28;;;;;;;1.45;1.02;;;;;;;;;;5037468;28;92423;-77
2022/10/27 05:18:54;;;;;;;2.58;1.30;;;;;;;;;;5037796;28;93141;-76
2022/10/27 05:21:21;;;;;;;1.40;1.02;;;;;;;;;;5037344;28;93387;-76
2022/10/27 05:23:48;;;;;;;1.98;1.30;;;;;;;;;;5037904;28;92461;-76
2022/10/27 05:26:14;;;;;;;1.30;1.20;;;;;;;;;;5040096;28;93457;-77
2022/10/27 05:28:43;;;;;;;1.00;0.90;;;;;;;;;;5038662;28;91755;-76
2022/10/27 05:31:09;;;;;;;1.48;1.05;;;;;;;;;;5019590;28;92395;-76
2022/10/27 05:33:35;;;;;;;1.95;1.10;;;;;;;;;;5037661;28;93436;-76
2022/10/27 05:36:02;;;;;;;4.05;1.65;;;;;;;;;;5036496;28;94828;-76
2022/10/27 05:38:28;;;;;;;1.80;1.30;;;;;;;;;;5019794;28;95917;-77
2022/10/27 05:40:55;;;;;;;2.08;1.40;;;;;;;;;;5019086;28;93467;-77
2022/10/27 05:43:21;;;;;;;1.40;1.30;;;;;;;;;;5037387;28;92369;-76
2022/10/27 05:45:48;;;;;;;1.38;1.17;;;;;;;;;;5037658;28;93103;-76
2022/10/27 05:48:14;;;;;;;1.83;1.33;;;;;;;;;;5040147;28;94205;-76
2022/10/27 05:50:41;;;;;;;1.45;0.93;;;;;;;;;;5037250;28;93118;-76
2022/10/27 05:53:07;;;;;;;1.10;1.00;;;;;;;;;;5038400;28;93771;-77
2022/10/27 05:55:33;;;;;;;1.75;1.10;;;;;;;;;;5036834;28;92468;-77
2022/10/27 05:58:01;;;;;;;1.88;1.23;;;;;;;;;;5037268;28;92992;-76
2022/10/27 06:00:31;;;;;;;1.73;1.15;;;;;;;;;;5035371;28;95847;-77
2022/10/27 06:02:59;;;;;;;1.27;1.17;;;;;;;;;;5036931;28;92473;-77
2022/10/27 06:05:26;;;;;;;1.77;1.00;;;;;;;;;;5037039;28;93509;-76
2022/10/27 06:07:52;;;;;;;1.30;1.20;;;;;;;;;;5036264;28;93424;-76
2022/10/27 06:10:19;;;;;;;1.83;1.20;;;;;;;;;;5022908;28;92404;-76
2022/10/27 06:12:45;;;;;;;1.50;1.20;;;;;;;;;;5035829;27;93396;-76
2022/10/27 06:15:12;;;;;;;2.55;1.02;;;;;;;;;;5037475;28;92462;-77
2022/10/27 06:17:38;;;;;;;1.58;0.95;;;;;;;;;;5037311;28;93099;-77
2022/10/27 06:20:05;;;;;;;1.00;0.80;;;;;;;;;;5036408;28;93579;-76
2022/10/27 06:22:31;;;;;;;0.93;0.93;;;;;;;;;;5019143;28;92493;-76
2022/10/27 06:24:57;;;;;;;2.33;1.25;;;;;;;;;;5035722;28;94740;-76
2022/10/27 06:27:23;;;;;;;1.25;1.08;;;;;;;;;;5037112;28;93486;-76
2022/10/27 06:29:49;;;;;;;1.23;1.13;;;;;;;;;;5036797;28;92552;-76
2022/10/27 06:32:16;;;;;;;1.30;1.00;;;;;;;;;;5039595;28;93139;-76
2022/10/27 06:34:42;;;;;;;1.45;1.02;;;;;;;;;;5037066;28;92430;-76
2022/10/27 06:37:08;;;;;;;2.75;1.00;;;;;;;;;;5036798;28;93186;-76
2022/10/27 06:39:35;;;;;;;1.00;1.00;;;;;;;;;;5036313;28;93359;-77
2022/10/27 06:42:01;;;;;;;1.38;1.00;;;;;;;;;;5037168;28;91720;-77
2022/10/27 06:44:27;;;;;;;1.25;1.02;;;;;;;;;;5036786;28;92363;-76
2022/10/27 06:46:53;;;;;;;1.70;1.25;;;;;;;;;;5036373;28;95199;-76
2022/10/27 06:49:20;;;;;;;1.98;0.82;;;;;;;;;;5034747;28;94860;-76
2022/10/27 06:51:46;;;;;;;1.33;1.17;;;;;;;;;;5035879;28;95553;-76
2022/10/27 06:54:12;;;;;;;1.58;1.08;;;;;;;;;;5039424;28;93726;-76
2022/10/27 06:56:38;;;;;;;1.33;1.23;;;;;;;;;;5036117;28;93252;-76
2022/10/27 06:59:05;;;;;;;1.33;1.10;;;;;;;;;;5035926;28;93453;-76
2022/10/27 07:01:31;;;;;;;1.60;1.13;;;;;;;;;;5036074;28;92443;-76
2022/10/27 07:03:57;;;;;;;1.15;1.02;;;;;;;;;;5035812;28;93093;-76
2022/10/27 07:06:24;;;;;;;1.67;1.00;;;;;;;;;;5017812;28;94824;-77
2022/10/27 07:08:51;;;;;;;3.33;1.10;;;;;;;;;;5036331;28;92462;-77
2022/10/27 07:11:18;;;;;;;1.13;1.00;;;;;;;;;;5018054;28;93079;-76
2022/10/27 07:13:44;;;;;;;1.75;1.20;;;;;;;;;;5034634;28;96831;-76
2022/10/27 07:16:10;;;;;;;1.52;1.10;;;;;;;;;;5039390;28;92728;-77
2022/10/27 07:18:37;;;;;;;1.65;1.20;;;;;;;;;;5035675;28;93228;-77
2022/10/27 07:21:04;;;;;;;1.27;1.13;;;;;;;;;;5035959;28;92606;-77
2022/10/27 07:23:30;;;;;;;1.98;1.10;;;;;;;;;;5017063;28;93299;-77
2022/10/27 07:25:56;;;;;;;1.02;0.90;;;;;;;;;;5035952;28;93597;-76
2022/10/27 07:28:23;;;;;;;1.17;0.98;;;;;;;;;;5035767;28;92464;-76
2022/10/27 07:30:52;;;;;;;1.00;0.90;;;;;;;;;;5018633;28;93161;-76
2022/10/27 07:33:18;;;;;;;1.47;1.37;;;;;;;;;;5035165;28;93571;-77
2022/10/27 07:35:48;;;;;;;2.15;1.20;;;;;;;;;;5038733;28;92449;-77
2022/10/27 07:38:15;;;;;;;1.40;1.00;;;;;;;;;;5033729;28;95739;-77
2022/10/27 07:40:41;;;;;;;1.45;1.20;;;;;;;;;;5035710;28;92669;-76
2022/10/27 07:43:08;;;;;;;1.33;0.95;;;;;;;;;;5035782;28;93157;-76
2022/10/27 07:45:35;;;;;;;0.88;0.88;;;;;;;;;;5017229;28;93454;-76
2022/10/27 07:48:02;;;;;;;0.85;0.85;;;;;;;;;;5035709;28;92402;-76
2022/10/27 07:50:31;;;;;;;1.27;1.10;;;;;;;;;;5035853;28;94207;-76
2022/10/27 07:52:59;;;;;;;1.85;1.27;;;;;;;;;;5035598;28;94490;-76
2022/10/27 07:55:26;;;;;;;2.03;1.00;;;;;;;;;;5035916;28;92516;-76
2022/10/27 07:58:02;;;;;;;1.10;1.00;;;;;;;;;;5038126;28;92357;-76
2022/10/27 08:00:29;;;;;;;1.73;1.00;;;;;;;;;;5017373;28;92462;-76
2022/10/27 08:02:59;;;;;;;1.52;0.90;;;;;;;;;;5033412;28;95740;-76
2022/10/27 08:05:26;;;;;;;0.80;0.80;;;;;;;;;;5017428;28;93347;-76
2022/10/27 08:07:55;;;;;;;4.07;1.20;;;;;;;;;;5034904;28;92887;-76
2022/10/27 08:10:22;;;;;;;1.75;1.05;;;;;;;;;;5034986;28;93370;-77
2022/10/27 08:12:48;;;;;;;1.45;1.10;;;;;;;;;;5034664;28;93409;-77
2022/10/27 08:15:14;;;;;;;1.20;1.10;;;;;;;;;;5034697;28;92450;-76
2022/10/27 08:17:40;;;;;;;1.25;1.15;;;;;;;;;;5034637;28;93145;-76
2022/10/27 08:20:07;;;;;;;0.98;0.98;;;;;;;;;;5038327;28;92664;-76
2022/10/27 08:22:34;;;;;;;1.20;1.10;;;;;;;;;;5035535;28;92391;-76
2022/10/27 08:25:00;;;;;;;1.65;1.00;;;;;;;;;;5034784;28;93401;-76
2022/10/27 08:27:31;;;;;;;1.73;1.00;;;;;;;;;;5033309;28;94907;-76
2022/10/27 08:29:57;;;;;;;1.15;1.05;;;;;;;;;;5017299;28;95452;-76
2022/10/27 08:32:24;;;;;;;1.23;1.13;;;;;;;;;;5034556;28;93988;-76
2022/10/27 08:34:50;;;;;;;1.65;1.33;;;;;;;;;;5034575;28;92429;-77
2022/10/27 08:37:17;;;;;;;1.10;1.00;;;;;;;;;;5034837;28;93291;-76
2022/10/27 08:39:43;;;;;;;2.22;1.10;;;;;;;;;;5034627;28;93918;-76
2022/10/27 08:42:31;;;;;;;1.85;1.05;;;;;;;;;;5037470;28;92337;-76
2022/10/27 08:45:00;;;;;;;1.30;1.20;;;;;;;;;;5034802;28;92677;-76
2022/10/27 08:47:27;;;;;;;1.35;1.20;;;;;;;;;;5014588;28;92535;-76
2022/10/27 08:49:53;;;;;;;1.33;0.80;;;;;;;;;;5014590;28;93074;-76
2022/10/27 08:52:28;;;;;;;1.52;1.10;;;;;;;;;;5012150;28;95831;-76
2022/10/27 08:54:59;;;;;;;0.90;0.90;;;;;;;;;;5014408;28;92454;-76
2022/10/27 08:57:27;;;;;;;1.90;1.23;;;;;;;;;;5014283;28;93074;-76
2022/10/27 08:59:54;;;;;;;2.28;1.23;;;;;;;;;;5014332;28;92488;-76
2022/10/27 09:02:46;;;;;;;1.40;1.10;;;;;;;;;;5014724;28;92471;-76
2022/10/27 09:05:31;;;;;;;2.08;1.20;;;;;;;;;;5017155;28;93315;-76
2022/10/27 09:08:17;;;;;;;1.90;1.15;;;;;;;;;;5014026;28;92608;-76
2022/10/27 09:10:56;;;;;;;2.33;1.10;;;;;;;;;;5013279;28;93187;-76
2022/10/27 09:13:42;;;;;;;1.70;1.10;;;;;;;;;;4996622;28;93298;-76
2022/10/27 09:16:12;;;;;;;1.83;1.10;;;;;;;;;;5024343;28;92373;-77
2022/10/27 09:18:39;;;;;;;;;;;;;;;;;;5032987;28;94727;-77
2022/10/27 09:21:12;;;;;;;1.23;1.10;;;;;;;;;;5034705;28;123903;-77
2022/10/27 09:23:40;;;;;;;1.70;1.02;;;;;;;;;;5034342;28;92439;-77
2022/10/27 09:26:08;;;;;;;3.03;1.10;;;;;;;;;;5037402;28;93248;-76
2022/10/27 09:28:40;;;;;;;1.27;1.00;;;;;;;;;;5034139;28;92397;-76
2022/10/27 09:31:10;;;;;;;2.15;0.80;;;;;;;;;;5034062;28;93065;-77
2022/10/27 09:33:36;;;;;;;0.90;0.90;;;;;;;;;;5034265;28;92416;-76
2022/10/27 09:36:12;;;;;;;1.00;0.90;;;;;;;;;;5034655;28;91637;-76
2022/10/27 09:38:38;;;;;;;1.00;0.90;;;;;;;;;;5034223;28;92401;-76
2022/10/27 09:41:05;;;;;;;1.88;1.02;;;;;;;;;;5033837;28;93233;-76
2022/10/27 09:43:32;;;;;;;0.98;0.93;;;;;;;;;;5032329;28;94926;-77
2022/10/27 09:46:02;;;;;;;1.10;1.00;;;;;;;;;;5034061;28;95295;-77
2022/10/27 09:48:30;;;;;;;0.70;0.70;;;;;;;;;;5040172;28;93449;-77
2022/10/27 09:51:11;;;;;;;1.42;0.90;;;;;;;;;;5037165;28;93098;-77
2022/10/27 09:53:49;;;;;;;1.75;0.82;;;;;;;;;;5036995;28;93769;-77
2022/10/27 09:56:23;;;;;;;1.25;0.98;;;;;;;;;;5037485;28;93121;-77
2022/10/27 09:59:10;;;;;;;0.95;0.90;;;;;;;;;;5036956;28;93098;-77
2022/10/27 10:01:42;;;;;;;1.65;0.93;;;;;;;;;;5037399;28;92682;-76
2022/10/27 10:04:17;;;;;;;0.90;0.80;;;;;;;;;;5036726;28;92452;-76
2022/10/27 10:06:50;;;;;;;1.35;0.93;;;;;;;;;;5037043;28;94306;-76
2022/10/27 10:09:24;;;;;;;2.65;1.08;;;;;;;;;;5034963;28;96241;-76
2022/10/27 10:12:10;;;;;;;2.45;0.90;;;;;;;;;;5040363;28;92583;-76
2022/10/27 10:14:36;;;;;;;1.00;0.90;;;;;;;;;;5036874;28;93495;-76
2022/10/27 10:17:02;;;;;;;1.73;1.00;;;;;;;;;;5019139;28;92463;-76
2022/10/27 10:19:29;;;;;;;0.90;0.80;;;;;;;;;;5036777;28;93616;-76
2022/10/27 10:21:56;;;;;;;0.80;0.80;;;;;;;;;;5036317;28;93786;-77
2022/10/27 10:24:24;;;;;;;0.80;0.80;;;;;;;;;;5036596;28;92475;-76
2022/10/27 10:26:53;;;;;;;0.60;0.60;;;;;;;;;;5037615;28;93143;-76
2022/10/27 10:29:30;;;;;;;0.88;0.88;;;;;;;;;;5036303;28;92333;-77
2022/10/27 10:32:11;;;;;;;1.02;0.90;;;;;;;;;;5037402;28;92404;-76
2022/10/27 10:34:38;;;;;;;0.75;0.75;;;;;;;;;;5037728;28;94766;-76
2022/10/27 10:37:24;;;;;;;1.50;0.77;;;;;;;;;;5036572;28;92397;-76
2022/10/27 10:39:50;;;;;;;2.42;0.70;;;;;;;;;;5018531;28;93066;-77
2022/10/27 10:42:17;;;;;;;2.03;0.95;;;;;;;;;;5036889;28;93422;-77
2022/10/27 10:44:44;;;;;;;0.90;0.88;;;;;;;;;;5019074;28;92417;-76
2022/10/27 10:47:26;;;;;;;1.35;0.93;;;;;;;;;;5035953;28;93046;-77
2022/10/27 10:49:55;;;;;;;1.23;0.70;;;;;;;;;;5036313;28;93402;-76
2022/10/27 10:52:23;;;;;;;1.35;0.95;;;;;;;;;;5036898;28;91718;-76
2022/10/27 10:54:50;;;;;;;0.55;0.55;;;;;;;;;;5036569;28;92391;-76
2022/10/27 10:57:22;;;;;;;1.77;0.98;;;;;;;;;;5038839;28;93423;-76
2022/10/27 10:59:51;;;;;;;1.50;0.80;;;;;;;;;;5034718;28;94869;-76
2022/10/27 11:02:18;;;;;;;1.35;1.08;;;;;;;;;;5036111;28;94536;-76
2022/10/27 11:04:46;;;;;;;1.42;0.90;;;;;;;;;;5036642;28;92358;-76
2022/10/27 11:07:23;;;;;;;1.17;0.70;;;;;;;;;;5035648;28;93129;-76
2022/10/27 11:10:03;;;;;;;0.70;0.70;;;;;;;;;;5035625;28;93437;-76
2022/10/27 11:12:37;;;;;;;2.25;0.70;;;;;;;;;;5036032;28;92382;-76
2022/10/27 11:15:13;;;;;;;1.27;0.70;;;;;;;;;;5035859;28;92354;-76
2022/10/27 11:17:40;;;;;;;0.80;0.80;;;;;;;;;;5018601;28;92839;-76
2022/10/27 11:20:12;;;;;;;0.60;0.60;;;;;;;;;;5039559;28;92402;-76
2022/10/27 11:22:39;;;;;;;0.60;0.60;;;;;;;;;;5018120;28;93527;-77
2022/10/27 11:25:10;;;;;;;0.70;0.70;;;;;;;;;;5034027;28;94827;-77
2022/10/27 11:27:48;;;;;;;0.93;0.82;;;;;;;;;;5035920;28;95519;-77
2022/10/27 11:30:20;;;;;;;1.52;0.70;;;;;;;;;;5035596;28;93308;-76
2022/10/27 11:32:51;;;;;;;1.15;0.80;;;;;;;;;;5035891;28;92432;-76
2022/10/27 11:35:23;;;;;;;1.77;1.08;;;;;;;;;;5035856;28;93111;-76
2022/10/27 11:38:03;;;;;;;0.90;0.80;;;;;;;;;;5018719;28;93387;-76
2022/10/27 11:40:38;;;;;;;0.77;0.68;;;;;;;;;;5039027;28;92459;-76
2022/10/27 11:43:24;;;;;;;1.25;0.65;;;;;;;;;;5036381;28;92699;-77
2022/10/27 11:46:04;;;;;;;1.02;0.80;;;;;;;;;;5035091;28;92700;-76
2022/10/27 11:48:44;;;;;;;0.70;0.70;;;;;;;;;;5035627;28;93285;-76
2022/10/27 11:51:17;;;;;;;0.60;0.60;;;;;;;;;;5033321;28;95802;-76
2022/10/27 11:53:43;;;;;;;1.40;0.98;;;;;;;;;;5017524;28;92494;-76
2022/10/27 11:56:41;;;;;;;1.73;0.90;;;;;;;;;;5035243;28;93448;-76
2022/10/27 11:59:08;;;;;;;0.77;0.77;;;;;;;;;;4990325;28;93781;-76
2022/10/27 12:01:40;;;;;;;1.88;0.75;;;;;;;;;;5035059;28;92476;-77
2022/10/27 12:04:12;;;;;;;2.65;1.00;;;;;;;;;;5037887;28;93642;-77
2022/10/27 12:06:41;;;;;;;0.73;0.70;;;;;;;;;;5034559;28;92434;-76
2022/10/27 12:09:12;;;;;;;1.17;1.02;;;;;;;;;;5035105;28;94546;-76
2022/10/27 12:11:47;;;;;;;0.95;0.68;;;;;;;;;;5035213;28;93638;-77
2022/10/27 12:14:32;;;;;;;1.55;0.90;;;;;;;;;;5017824;28;92369;-76
2022/10/27 12:17:13;;;;;;;1.35;0.80;;;;;;;;;;5034094;28;94778;-76
2022/10/27 12:19:42;;;;;;;1.02;0.90;;;;;;;;;;5035060;28;96230;-76
2022/10/27 12:22:08;;;;;;;0.98;0.82;;;;;;;;;;5035178;28;92432;-76
2022/10/27 12:24:37;;;;;;;2.53;1.20;;;;;;;;;;5034996;28;93114;-76
2022/10/27 12:27:11;;;;;;;0.88;0.63;;;;;;;;;;5037918;28;93434;-76
2022/10/27 12:29:41;;;;;;;1.38;0.80;;;;;;;;;;5034821;28;93073;-76
2022/10/27 12:32:13;;;;;;;1.20;0.85;;;;;;;;;;5034742;28;93774;-77
2022/10/27 12:34:44;;;;;;;3.03;0.80;;;;;;;;;;5035101;28;91713;-77
2022/10/27 12:37:22;;;;;;;1.50;0.80;;;;;;;;;;5017020;28;92578;-77
2022/10/27 12:39:56;;;;;;;1.00;0.80;;;;;;;;;;5034612;28;93518;-77
2022/10/27 12:42:25;;;;;;;1.77;0.90;;;;;;;;;;5015601;28;94918;-76
2022/10/27 12:44:58;;;;;;;3.92;1.02;;;;;;;;;;5034615;28;95523;-76
2022/10/27 12:47:37;;;;;;;1.25;0.60;;;;;;;;;;5014316;28;93491;-76
2022/10/27 12:50:16;;;;;;;0.80;0.80;;;;;;;;;;5017531;28;92596;-76
2022/10/27 12:52:49;;;;;;;1.23;0.98;;;;;;;;;;5014583;28;94094;-76
2022/10/27 12:55:23;;;;;;;0.68;0.68;;;;;;;;;;5014416;28;92395;-77
2022/10/27 12:57:55;;;;;;;1.05;0.93;;;;;;;;;;4996839;28;93127;-77
2022/10/27 13:00:22;;;;;;;1.17;0.90;;;;;;;;;;5014581;28;92607;-77
2022/10/27 13:02:53;;;;;;;0.65;0.65;;;;;;;;;;5014208;28;92555;-77
2022/10/27 13:05:22;;;;;;;1.25;0.75;;;;;;;;;;5014235;28;93475;-77
2022/10/27 13:08:01;;;;;;;1.08;0.95;;;;;;;;;;5012052;28;95652;-76
2022/10/27 13:10:31;;;;;;;0.77;0.77;;;;;;;;;;5014319;28;92435;-76
2022/10/27 13:13:08;;;;;;;1.42;0.60;;;;;;;;;;5017644;28;94246;-76
2022/10/27 13:15:55;;;;;;;0.82;0.80;;;;;;;;;;5019090;28;92437;-76
2022/10/27 13:18:39;;;;;;;0.80;0.80;;;;;;;;;;5034475;28;93172;-76
2022/10/27 13:21:14;;;;;;;1.80;1.00;;;;;;;;;;5027387;27;93413;-76
2022/10/27 13:23:41;;;;;;;2.70;1.00;;;;;;;;;;5037889;28;92483;-76
2022/10/27 13:26:14;;;;;;;1.20;0.60;;;;;;;;;;5038259;28;93122;-76
2022/10/27 13:28:44;;;;;;;3.05;0.80;;;;;;;;;;5037709;28;92341;-76
2022/10/27 13:31:16;;;;;;;0.90;0.70;;;;;;;;;;5038063;28;92378;-76
2022/10/27 13:33:58;;;;;;;1.70;0.90;;;;;;;;;;5035979;28;94723;-77
2022/10/27 13:36:26;;;;;;;0.60;0.60;;;;;;;;;;5040975;28;95341;-76
2022/10/27 13:39:11;;;;;;;4.28;0.90;;;;;;;;;;5037736;28;93146;-76
2022/10/27 13:41:56;;;;;;;0.70;0.70;;;;;;;;;;5037277;28;93685;-76
2022/10/27 13:44:29;;;;;;;2.08;0.88;;;;;;;;;;5037433;28;92777;-76
2022/10/27 13:47:16;;;;;;;0.73;0.60;;;;;;;;;;5037104;28;93118;-77
2022/10/27 13:49:42;;;;;;;0.70;0.70;;;;;;;;;;5037439;28;95409;-76
2022/10/27 13:52:10;;;;;;;1.25;0.90;;;;;;;;;;5037749;28;91657;-76
2022/10/27 13:54:55;;;;;;;0.90;0.90;;;;;;;;;;5037122;28;92310;-76
2022/10/27 13:57:40;;;;;;;0.88;0.82;;;;;;;;;;5039939;28;93591;-76
2022/10/27 14:00:12;;;;;;;0.95;0.80;;;;;;;;;;5036215;28;95481;-76
2022/10/27 14:02:48;;;;;;;0.60;0.60;;;;;;;;;;5036768;28;93438;-76
2022/10/27 14:05:20;;;;;;;0.98;0.90;;;;;;;;;;5037668;28;92376;-76
2022/10/27 14:07:47;;;;;;;0.80;0.63;;;;;;;;;;5036967;28;93506;-76
2022/10/27 14:10:13;;;;;;;1.13;0.80;;;;;;;;;;5019338;28;94746;-76
2022/10/27 14:12:40;;;;;;;0.95;0.82;;;;;;;;;;5019051;28;92471;-76
2022/10/27 14:15:14;;;;;;;1.13;0.77;;;;;;;;;;5036770;28;93218;-76
2022/10/27 14:17:41;;;;;;;1.63;0.80;;;;;;;;;;5019387;28;92658;-76
2022/10/27 14:20:26;;;;;;;1.13;0.90;;;;;;;;;;5040433;28;92415;-76
2022/10/27 14:22:55;;;;;;;1.20;0.63;;;;;;;;;;5036708;28;93453;-76
2022/10/27 14:25:21;;;;;;;1.38;0.85;;;;;;;;;;5017864;28;94807;-76
2022/10/27 14:27:48;;;;;;;1.20;0.80;;;;;;;;;;5037025;28;95874;-76
2022/10/27 14:30:19;;;;;;;0.75;0.75;;;;;;;;;;5036307;28;93729;-76
2022/10/27 14:32:46;;;;;;;0.70;0.70;;;;;;;;;;5035910;27;92441;-76
2022/10/27 14:35:21;;;;;;;1.00;0.90;;;;;;;;;;5036459;28;93170;-76
2022/10/27 14:37:48;;;;;;;3.92;1.00;;;;;;;;;;5036617;28;93465;-77
2022/10/27 14:40:17;;;;;;;1.20;0.80;;;;;;;;;;5036829;28;92437;-77
2022/10/27 14:42:44;;;;;;;0.50;0.50;;;;;;;;;;5039852;28;93055;-76
2022/10/27 14:45:14;;;;;;;0.98;0.82;;;;;;;;;;5036188;28;92426;-76
2022/10/27 14:47:42;;;;;;;2.08;0.70;;;;;;;;;;5036429;28;93120;-77
2022/10/27 14:50:14;;;;;;;2.38;1.00;;;;;;;;;;5034562;28;96037;-76
2022/10/27 14:52:43;;;;;;;2.05;0.88;;;;;;;;;;5036271;28;92444;-76
2022/10/27 14:55:17;;;;;;;0.85;0.85;;;;;;;;;;5036475;28;93175;-76
2022/10/27 14:57:43;;;;;;;;;;;;;;;;;;5019096;28;93356;-77